Time;durP1;ratioP1;P1;durP2;ratioP2;P2;SDS_P1;SDS_P2;PMS_P1;PMS_P2;Temp;Humidity;BMP_temperature;BMP_pressure;BME280_temperature;BME280_humidity;BME280_pressure;Samples;Min_cycle;Max_cycle;Signal;HPM_P1;HPM_P2
2023/03/20 00:01:15;;;;;;;;;;;7.00;99.90;;;;;;5040094;28;19964;-93
2023/03/20 00:03:41;;;;;;;;;;;6.90;99.90;;;;;;5027656;28;20672;-93
2023/03/20 00:06:13;;;;;;;;;;;6.90;99.90;;;;;;5012356;28;19925;-93
2023/03/20 00:08:39;;;;;;;;;;;6.80;99.90;;;;;;5023203;28;19925;-93
2023/03/20 00:11:04;;;;;;;;;;;6.80;99.90;;;;;;5008270;28;19972;-93
2023/03/20 00:13:30;;;;;;;;;;;6.80;99.90;;;;;;5026356;28;19940;-92
2023/03/20 00:15:56;;;;;;;;;;;6.80;99.90;;;;;;5035633;28;19933;-93
2023/03/20 00:18:22;;;;;;;;;;;6.70;99.90;;;;;;5024876;28;19929;-92
2023/03/20 00:20:48;;;;;;;;;;;6.70;99.90;;;;;;5006071;28;19980;-92
2023/03/20 00:23:15;;;;;;;;;;;6.70;99.90;;;;;;5051850;28;19936;-93
2023/03/20 00:25:42;;;;;;;;;;;6.70;99.90;;;;;;5026004;28;20016;-94
2023/03/20 00:34:09;;;;;;;;;;;6.70;99.90;;;;;;1446660;26;20471;-87
2023/03/20 00:36:34;;;;;;;;;;;6.50;99.90;;;;;;5037285;28;19931;-87
2023/03/20 00:39:00;;;;;;;;;;;6.40;99.90;;;;;;5037626;28;19925;-87
2023/03/20 00:41:35;;;;;;;;;;;6.70;99.90;;;;;;5021526;28;20030;-87
2023/03/20 00:44:19;;;;;;;;;;;6.70;99.90;;;;;;5037797;28;19947;-87
2023/03/20 00:46:46;;;;;;;;;;;6.70;99.90;;;;;;5037286;28;19925;-87
2023/03/20 00:49:11;;;;;;;;;;;6.80;99.90;;;;;;5037746;28;19939;-87
2023/03/20 00:51:38;;;;;;;;;;;6.80;99.90;;;;;;5036932;28;19925;-87
2023/03/20 00:54:14;;;;;;;;;;;6.80;99.90;;;;;;5037405;28;20396;-86
2023/03/20 00:56:42;;;;;;;;;;;6.70;99.90;;;;;;5037267;28;19932;-87
2023/03/20 00:59:12;;;;;;;;;;;6.80;99.90;;;;;;5037536;28;19929;-86
2023/03/20 01:01:38;;;;;;;;;;;6.70;99.90;;;;;;5038113;28;19931;-87
2023/03/20 01:04:08;;;;;;;;;;;6.80;99.90;;;;;;5020527;28;20015;-87
2023/03/20 01:06:34;;;;;;;;;;;6.80;99.90;;;;;;5037337;28;19937;-87
2023/03/20 01:09:00;;;;;;;;;;;6.70;99.90;;;;;;5020936;28;19933;-86
2023/03/20 01:11:26;;;;;;;;;;;6.70;99.90;;;;;;5037272;28;20023;-87
2023/03/20 01:13:52;;;;;;;;;;;6.70;99.90;;;;;;5020644;28;19947;-87
2023/03/20 01:16:23;;;;;;;;;;;7.00;99.90;;;;;;5036697;28;19925;-87
2023/03/20 01:18:49;;;;;;;;;;;6.80;99.90;;;;;;5037803;28;19925;-87
2023/03/20 01:21:15;;;;;;;;;;;5.40;99.90;;;;;;5020192;28;20298;-87
2023/03/20 01:23:40;;;;;;;;;;;7.80;99.90;;;;;;5021058;28;19931;-87
2023/03/20 01:26:21;;;;;;;;;;;7.10;99.90;;;;;;5036811;28;19925;-87
2023/03/20 01:28:47;;;;;;;;;;;6.90;99.90;;;;;;5036737;28;20288;-87
2023/03/20 01:31:14;;;;;;;;;;;7.00;99.90;;;;;;5036519;28;19928;-87
2023/03/20 01:33:39;;;;;;;;;;;6.90;99.90;;;;;;5020585;28;20404;-86
2023/03/20 01:36:05;;;;;;;;;;;6.90;99.90;;;;;;5035561;28;19968;-87
2023/03/20 01:38:31;;;;;;;;;;;6.80;99.90;;;;;;5036650;28;19924;-87
2023/03/20 01:41:04;;;;;;;;;;;7.80;99.90;;;;;;5020121;28;19976;-87
2023/03/20 01:43:30;;;;;;;;;;;6.90;99.90;;;;;;5019784;28;19925;-87
2023/03/20 01:46:01;;;;;;;;;;;7.10;99.90;;;;;;5036009;28;19925;-87
2023/03/20 01:48:54;;;;;;;;;;;7.00;99.90;;;;;;5019616;28;19924;-88
2023/03/20 01:51:24;;;;;;;;;;;6.90;99.90;;;;;;5001437;28;19983;-87
2023/03/20 01:54:11;;;;;;;;;;;7.10;99.90;;;;;;5036936;28;19929;-87
2023/03/20 02:09:18;;;;;;;;;;;7.00;99.90;;;;;;5086336;22;19929;-86
2023/03/20 02:11:45;;;;;;;;;;;7.20;99.90;;;;;;5035365;28;19931;-87
2023/03/20 02:14:11;;;;;;;;;;;7.00;99.90;;;;;;5051968;28;20348;-87
2023/03/20 02:16:40;;;;;;;;;;;7.00;99.90;;;;;;5036181;28;19978;-87
2023/03/20 02:19:09;;;;;;;;;;;7.00;99.90;;;;;;5052769;28;20376;-87
2023/03/20 02:21:50;;;;;;;;;;;7.00;99.90;;;;;;5036411;28;19932;-87
2023/03/20 02:24:24;;;;;;;;;;;7.00;99.90;;;;;;5053309;28;19925;-86
2023/03/20 02:27:09;;;;;;;;;;;7.00;99.90;;;;;;5053667;28;19924;-87
2023/03/20 02:29:47;;;;;;;;;;;7.30;99.90;;;;;;5069973;28;19932;-87
2023/03/20 02:32:24;;;;;;;;;;;7.00;99.90;;;;;;5036311;28;19932;-87
2023/03/20 02:34:53;;;;;;;;;;;7.00;99.90;;;;;;5053093;28;19925;-87
2023/03/20 02:37:42;;;;;;;;;;;7.10;99.90;;;;;;5036243;28;19983;-87
2023/03/20 02:40:29;;;;;;;;;;;7.10;99.90;;;;;;5070420;28;19947;-87
2023/03/20 02:42:58;;;;;;;;;;;7.00;99.90;;;;;;5053104;28;19932;-87
2023/03/20 02:45:23;;;;;;;;;;;7.10;99.90;;;;;;5036484;28;19925;-87
2023/03/20 02:48:18;;;;;;;;;;;7.00;99.90;;;;;;5052607;28;20411;-87
2023/03/20 02:50:47;;;;;;;;;;;7.10;99.90;;;;;;5023121;28;19979;-86
2023/03/20 02:53:13;;;;;;;;;;;7.10;99.90;;;;;;5052679;28;19925;-87
2023/03/20 02:55:44;;;;;;;;;;;7.10;99.90;;;;;;5035984;28;19931;-86
2023/03/20 02:58:12;;;;;;;;;;;7.10;99.90;;;;;;5053852;28;20387;-87
2023/03/20 03:00:46;;;;;;;;;;;7.10;99.90;;;;;;5039893;28;19929;-87
2023/03/20 03:03:15;;;;;;;;;;;7.10;99.90;;;;;;5073445;28;19982;-86
2023/03/20 03:05:53;;;;;;;;;;;7.10;99.90;;;;;;5040088;28;20284;-87
2023/03/20 03:08:21;;;;;;;;;;;7.10;99.90;;;;;;5057457;28;19964;-88
2023/03/20 03:10:49;;;;;;;;;;;7.10;99.90;;;;;;5039985;28;19947;-87
2023/03/20 03:13:18;;;;;;;;;;;5.80;99.90;;;;;;5073577;28;20410;-86
2023/03/20 03:15:46;;;;;;;;;;;7.10;99.90;;;;;;5040686;28;19999;-86
2023/03/20 03:18:14;;;;;;;;;;;7.20;99.90;;;;;;5056815;28;20252;-87
2023/03/20 03:20:41;;;;;;;;;;;7.10;99.90;;;;;;5039909;28;20292;-87
2023/03/20 03:23:13;;;;;;;;;;;7.10;99.90;;;;;;5056372;28;20018;-86
2023/03/20 03:25:39;;;;;;;;;;;7.20;99.90;;;;;;5040529;28;19978;-86
2023/03/20 03:28:17;;;;;;;;;;;7.20;99.90;;;;;;5023242;28;19928;-86
2023/03/20 03:30:44;;;;;;;;;;;7.10;99.90;;;;;;5056829;28;20369;-86
2023/03/20 03:33:18;;;;;;;;;;;7.20;99.90;;;;;;5056218;28;20300;-87
2023/03/20 03:35:45;;;;;;;;;;;7.10;99.90;;;;;;5056108;28;19925;-86
2023/03/20 03:38:34;;;;;;;;;;;6.10;99.90;;;;;;5039283;28;19924;-86
2023/03/20 03:40:59;;;;;;;;;;;7.20;99.90;;;;;;5055996;28;19925;-86
2023/03/20 03:43:35;;;;;;;;;;;7.10;99.90;;;;;;5039353;28;19932;-86
2023/03/20 03:46:04;;;;;;;;;;;7.10;99.90;;;;;;5055927;28;19936;-86
2023/03/20 03:48:33;;;;;;;;;;;7.10;99.90;;;;;;5039278;28;20020;-86
2023/03/20 03:51:03;;;;;;;;;;;7.20;99.90;;;;;;5039130;28;19947;-86
2023/03/20 03:53:31;;;;;;;;;;;7.20;99.90;;;;;;5056631;28;19925;-86
2023/03/20 03:55:59;;;;;;;;;;;7.20;99.90;;;;;;5055995;28;19925;-87
2023/03/20 03:58:27;;;;;;;;;;;7.20;99.90;;;;;;5055625;28;19983;-87
2023/03/20 04:00:55;;;;;;;;;;;7.20;99.90;;;;;;5039366;28;20327;-87
2023/03/20 04:03:23;;;;;;;;;;;7.20;99.90;;;;;;5055613;28;19932;-87
2023/03/20 04:05:50;;;;;;;;;;;7.20;99.90;;;;;;5056453;28;19972;-87
2023/03/20 04:08:15;;;;;;;;;;;7.20;99.90;;;;;;5054944;28;19968;-87
2023/03/20 04:10:41;;;;;;;;;;;9.20;99.90;;;;;;5039030;28;19995;-87
2023/03/20 04:13:06;;;;;;;;;;;7.20;99.90;;;;;;5038742;28;20035;-86
2023/03/20 04:15:32;;;;;;;;;;;7.30;99.90;;;;;;5054970;28;19929;-87
2023/03/20 04:17:58;;;;;;;;;;;7.10;99.90;;;;;;5038988;28;19948;-86
2023/03/20 04:20:24;;;;;;;;;;;7.20;99.90;;;;;;5038321;28;20368;-87
2023/03/20 04:22:49;;;;;;;;;;;7.20;99.90;;;;;;5038734;28;19924;-87
2023/03/20 04:25:20;;;;;;;;;;;7.30;99.90;;;;;;5038281;28;20414;-87
2023/03/20 04:27:45;;;;;;;;;;;7.20;99.90;;;;;;5039396;28;20277;-87
2023/03/20 04:30:11;;;;;;;;;;;7.20;99.90;;;;;;5021903;28;19936;-87
2023/03/20 04:32:37;;;;;;;;;;;7.60;99.90;;;;;;5038949;28;19924;-87
2023/03/20 04:35:03;;;;;;;;;;;7.40;99.90;;;;;;5038303;28;19931;-87
2023/03/20 04:37:29;;;;;;;;;;;7.20;99.90;;;;;;5054742;28;20419;-87
2023/03/20 04:39:54;;;;;;;;;;;7.20;99.90;;;;;;5038278;28;19924;-87
2023/03/20 04:42:20;;;;;;;;;;;7.10;99.90;;;;;;5039121;28;19925;-86
2023/03/20 04:44:46;;;;;;;;;;;7.10;99.90;;;;;;5038236;28;19943;-87
2023/03/20 04:47:11;;;;;;;;;;;7.10;99.90;;;;;;5037978;28;19925;-87
2023/03/20 04:49:37;;;;;;;;;;;7.30;99.90;;;;;;5038192;28;19924;-87
2023/03/20 04:52:03;;;;;;;;;;;7.10;99.90;;;;;;5054445;28;19979;-86
2023/03/20 04:54:28;;;;;;;;;;;7.10;99.90;;;;;;5054697;28;19925;-87
2023/03/20 04:56:54;;;;;;;;;;;7.30;99.90;;;;;;5037657;28;20376;-87
2023/03/20 04:59:20;;;;;;;;;;;7.40;99.90;;;;;;5037904;28;19972;-90
2023/03/20 05:01:45;;;;;;;;;;;7.30;99.90;;;;;;5037955;28;19925;-86
2023/03/20 05:04:11;;;;;;;;;;;7.30;99.90;;;;;;5038619;28;19928;-87
2023/03/20 05:06:37;;;;;;;;;;;7.10;99.90;;;;;;5021675;28;19979;-87
2023/03/20 05:09:03;;;;;;;;;;;6.40;99.90;;;;;;5021351;28;19993;-87
2023/03/20 05:11:28;;;;;;;;;;;7.60;99.90;;;;;;5054134;28;20320;-87
2023/03/20 05:13:54;;;;;;;;;;;7.20;99.90;;;;;;5054243;28;19925;-87
2023/03/20 05:16:20;;;;;;;;;;;7.30;99.90;;;;;;5037754;28;19925;-86
2023/03/20 05:18:46;;;;;;;;;;;7.10;99.90;;;;;;5037554;28;19932;-87
2023/03/20 05:21:11;;;;;;;;;;;7.10;99.90;;;;;;5053580;28;19933;-87
2023/03/20 05:23:37;;;;;;;;;;;7.10;99.90;;;;;;5054767;28;19931;-86
2023/03/20 05:26:03;;;;;;;;;;;7.20;99.90;;;;;;5037328;28;20257;-86
2023/03/20 05:28:29;;;;;;;;;;;7.10;99.90;;;;;;5037721;28;20002;-88
2023/03/20 05:30:54;;;;;;;;;;;7.20;99.90;;;;;;5037250;28;19963;-87
2023/03/20 05:33:20;;;;;;;;;;;7.10;99.90;;;;;;5054008;28;20386;-86
2023/03/20 05:35:46;;;;;;;;;;;7.10;99.90;;;;;;5053709;28;19925;-86
2023/03/20 05:38:11;;;;;;;;;;;7.10;99.90;;;;;;5020894;28;19925;-86
2023/03/20 05:40:37;;;;;;;;;;;7.20;99.90;;;;;;5053686;28;19924;-87
2023/03/20 05:43:03;;;;;;;;;;;7.10;99.90;;;;;;5037459;28;20300;-87
2023/03/20 05:45:29;;;;;;;;;;;7.10;99.90;;;;;;5053486;28;20400;-87
2023/03/20 05:47:54;;;;;;;;;;;7.10;99.90;;;;;;5070572;28;19932;-87
2023/03/20 05:50:20;;;;;;;;;;;7.40;99.90;;;;;;5037797;28;19925;-86
2023/03/20 05:52:47;;;;;;;;;;;7.10;99.90;;;;;;5036656;28;19925;-86
2023/03/20 05:55:12;;;;;;;;;;;7.10;99.90;;;;;;5037123;28;19925;-87
2023/03/20 05:57:39;;;;;;;;;;;7.10;99.90;;;;;;5037055;28;19931;-87
2023/03/20 06:00:05;;;;;;;;;;;7.10;99.90;;;;;;5053167;28;19925;-87
2023/03/20 06:02:31;;;;;;;;;;;7.10;99.90;;;;;;5070073;28;19958;-87
2023/03/20 06:04:57;;;;;;;;;;;7.10;99.90;;;;;;5037042;28;19931;-86
2023/03/20 06:07:22;;;;;;;;;;;7.10;99.90;;;;;;5053127;28;20345;-86
2023/03/20 06:09:48;;;;;;;;;;;7.10;99.90;;;;;;5052775;28;20312;-87
2023/03/20 06:12:15;;;;;;;;;;;7.10;99.90;;;;;;5053819;28;19978;-87
2023/03/20 06:14:40;;;;;;;;;;;7.00;99.90;;;;;;5020247;28;19924;-86
2023/03/20 06:17:06;;;;;;;;;;;6.70;99.90;;;;;;5020180;28;20331;-86
2023/03/20 06:19:31;;;;;;;;;;;7.10;99.90;;;;;;5036627;28;19925;-87
2023/03/20 06:21:57;;;;;;;;;;;7.10;99.90;;;;;;5036532;28;19925;-87
2023/03/20 06:24:23;;;;;;;;;;;7.10;99.90;;;;;;5052666;28;19925;-88
2023/03/20 06:26:48;;;;;;;;;;;7.10;99.90;;;;;;5086794;28;20246;-86
2023/03/20 06:29:14;;;;;;;;;;;7.40;99.90;;;;;;5036142;28;19994;-85
2023/03/20 06:31:40;;;;;;;;;;;7.20;99.90;;;;;;5036212;28;19924;-87
2023/03/20 06:34:06;;;;;;;;;;;7.20;99.90;;;;;;5036821;28;19925;-87
2023/03/20 06:36:31;;;;;;;;;;;7.20;99.90;;;;;;5071327;28;19929;-85
2023/03/20 06:38:57;;;;;;;;;;;7.20;99.90;;;;;;5052962;28;19929;-87
2023/03/20 06:41:22;;;;;;;;;;;7.30;99.90;;;;;;5019749;28;19925;-86
2023/03/20 06:43:48;;;;;;;;;;;7.30;99.90;;;;;;5037125;28;19931;-86
2023/03/20 06:46:14;;;;;;;;;;;7.30;99.90;;;;;;5019786;28;20295;-89
2023/03/20 06:48:40;;;;;;;;;;;7.30;99.90;;;;;;5036244;28;19925;-85
2023/03/20 06:51:06;;;;;;;;;;;7.40;99.90;;;;;;5036833;28;20404;-87
2023/03/20 06:53:32;;;;;;;;;;;7.90;99.90;;;;;;5069441;28;20004;-87
2023/03/20 06:55:58;;;;;;;;;;;6.30;99.90;;;;;;5035565;28;19975;-86
2023/03/20 06:58:24;;;;;;;;;;;7.40;99.90;;;;;;5069825;28;19925;-85
2023/03/20 07:00:50;;;;;;;;;;;7.40;99.90;;;;;;5052560;28;19948;-86
2023/03/20 07:03:16;;;;;;;;;;;7.50;99.90;;;;;;5036624;28;19940;-85
2023/03/20 07:05:42;;;;;;;;;;;7.50;99.90;;;;;;5019411;28;19932;-85
2023/03/20 07:08:08;;;;;;;;;;;7.50;99.90;;;;;;5035572;28;19931;-86
2023/03/20 07:10:35;;;;;;;;;;;7.50;99.90;;;;;;5053123;28;20011;-85
2023/03/20 07:13:00;;;;;;;;;;;7.60;99.90;;;;;;5051689;28;19925;-87
2023/03/20 07:15:26;;;;;;;;;;;7.90;99.90;;;;;;5019556;28;19931;-86
2023/03/20 07:17:52;;;;;;;;;;;7.60;99.90;;;;;;5035968;28;19925;-86
2023/03/20 07:20:18;;;;;;;;;;;7.60;99.90;;;;;;5052232;28;20035;-86
2023/03/20 07:22:44;;;;;;;;;;;7.70;99.90;;;;;;5036465;28;20380;-86
2023/03/20 07:25:09;;;;;;;;;;;7.70;99.90;;;;;;5036267;28;19931;-86
2023/03/20 07:27:36;;;;;;;;;;;7.80;99.90;;;;;;5053073;28;20346;-86
2023/03/20 07:30:03;;;;;;;;;;;7.90;99.90;;;;;;5035566;28;19925;-87
2023/03/20 07:32:28;;;;;;;;;;;7.80;99.90;;;;;;5018956;28;19975;-85
2023/03/20 07:34:54;;;;;;;;;;;6.30;99.90;;;;;;5068780;28;19928;-86
2023/03/20 07:37:20;;;;;;;;;;;8.00;99.90;;;;;;5019357;28;19925;-86
2023/03/20 07:39:45;;;;;;;;;;;8.10;99.90;;;;;;5035352;28;19994;-86
2023/03/20 07:42:12;;;;;;;;;;;8.10;99.90;;;;;;5035520;28;19936;-85
2023/03/20 07:44:38;;;;;;;;;;;8.20;99.90;;;;;;5037962;28;19925;-86
2023/03/20 07:47:05;;;;;;;;;;;8.20;99.90;;;;;;5022899;28;20377;-85
2023/03/20 07:49:31;;;;;;;;;;;8.20;99.90;;;;;;5039156;28;19935;-86
2023/03/20 07:51:57;;;;;;;;;;;8.30;99.90;;;;;;5039083;28;19924;-85
2023/03/20 07:54:23;;;;;;;;;;;8.30;99.90;;;;;;5022837;28;19932;-85
2023/03/20 07:56:49;;;;;;;;;;;8.30;99.90;;;;;;5039736;28;20023;-86
2023/03/20 07:59:15;;;;;;;;;;;8.40;99.90;;;;;;5055575;28;19931;-85
2023/03/20 08:01:41;;;;;;;;;;;8.40;99.90;;;;;;5055689;28;20364;-85
2023/03/20 08:04:07;;;;;;;;;;;8.50;99.90;;;;;;5039172;28;19975;-85
2023/03/20 08:06:32;;;;;;;;;;;8.50;99.90;;;;;;5056037;28;19972;-85
2023/03/20 08:08:58;;;;;;;;;;;8.50;99.90;;;;;;5039032;28;20372;-85
2023/03/20 08:11:24;;;;;;;;;;;8.50;99.90;;;;;;5038430;28;20355;-85
2023/03/20 08:13:49;;;;;;;;;;;8.60;99.90;;;;;;5056050;28;19975;-85
2023/03/20 08:16:15;;;;;;;;;;;8.70;99.90;;;;;;5022364;28;19924;-86
2023/03/20 08:18:41;;;;;;;;;;;8.50;99.90;;;;;;5039339;28;19944;-86
2023/03/20 08:21:07;;;;;;;;;;;8.70;99.90;;;;;;5038545;28;19945;-84
2023/03/20 08:23:33;;;;;;;;;;;8.70;99.90;;;;;;5038169;28;19928;-85
2023/03/20 08:25:59;;;;;;;;;;;8.80;99.90;;;;;;5038417;28;20047;-86
2023/03/20 08:28:24;;;;;;;;;;;7.60;99.90;;;;;;5021945;28;19932;-85
2023/03/20 08:30:50;;;;;;;;;;;8.80;99.90;;;;;;5021712;28;19925;-86
2023/03/20 08:33:16;;;;;;;;;;;8.90;99.90;;;;;;5054940;28;20373;-86
2023/03/20 08:35:42;;;;;;;;;;;8.90;99.90;;;;;;5054932;28;19992;-85
2023/03/20 08:38:14;;;;;;;;;;;8.90;99.90;;;;;;5054972;28;20035;-85
2023/03/20 08:40:40;;;;;;;;;;;8.90;99.90;;;;;;5055360;28;20007;-86
2023/03/20 08:43:06;;;;;;;;;;;8.80;99.90;;;;;;5054877;28;20384;-86
2023/03/20 08:45:32;;;;;;;;;;;8.90;99.90;;;;;;5021587;28;19935;-85
2023/03/20 08:47:57;;;;;;;;;;;8.90;99.90;;;;;;5038923;28;19932;-85
2023/03/20 08:50:23;;;;;;;;;;;9.00;99.90;;;;;;5037916;28;20356;-85
2023/03/20 08:52:49;;;;;;;;;;;9.00;99.90;;;;;;5054497;28;19925;-85
2023/03/20 08:55:15;;;;;;;;;;;9.10;99.90;;;;;;5037650;28;19925;-85
2023/03/20 08:57:40;;;;;;;;;;;9.10;99.90;;;;;;5022248;28;19925;-85
2023/03/20 09:00:07;;;;;;;;;;;9.10;99.90;;;;;;5038130;28;19925;-85
2023/03/20 09:02:33;;;;;;;;;;;9.10;99.90;;;;;;5037055;28;20395;-86
2023/03/20 09:04:58;;;;;;;;;;;9.20;99.90;;;;;;5054354;28;19924;-86
2023/03/20 09:07:24;;;;;;;;;;;9.20;99.90;;;;;;5037664;28;19925;-86
2023/03/20 09:09:50;;;;;;;;;;;9.20;99.90;;;;;;5053919;28;20003;-85
2023/03/20 09:12:15;;;;;;;;;;;9.30;99.90;;;;;;5054065;28;19948;-86
2023/03/20 09:14:41;;;;;;;;;;;9.30;99.90;;;;;;5037431;28;19929;-85
2023/03/20 09:17:07;;;;;;;;;;;9.40;99.90;;;;;;5054231;28;19925;-87
2023/03/20 09:19:32;;;;;;;;;;;9.50;99.90;;;;;;5053730;28;19935;-86
2023/03/20 09:21:59;;;;;;;;;;;9.50;99.90;;;;;;5037488;28;20029;-85
2023/03/20 09:24:24;;;;;;;;;;;9.60;99.90;;;;;;5020900;28;20025;-85
2023/03/20 09:26:51;;;;;;;;;;;9.70;99.90;;;;;;5053614;28;20362;-86
2023/03/20 09:29:16;;;;;;;;;;;9.80;99.90;;;;;;5037227;28;19925;-86
2023/03/20 09:31:42;;;;;;;;;;;10.00;99.90;;;;;;5053729;28;19979;-85
2023/03/20 09:34:08;;;;;;;;;;;10.00;99.90;;;;;;5053800;28;19932;-86
2023/03/20 09:36:33;;;;;;;;;;;10.10;99.90;;;;;;5037214;28;19979;-84
2023/03/20 09:38:59;;;;;;;;;;;10.10;99.90;;;;;;5037055;28;19944;-86
2023/03/20 09:41:35;;;;;;;;;;;10.10;99.90;;;;;;5053608;28;19928;-86
2023/03/20 09:44:04;;;;;;;;;;;10.20;99.90;;;;;;5037364;28;19935;-86
2023/03/20 09:46:50;;;;;;;;;;;10.10;99.90;;;;;;5053624;28;20025;-86
2023/03/20 09:49:38;;;;;;;;;;;10.10;99.90;;;;;;5006836;28;19925;-86
2023/03/20 09:52:17;;;;;;;;;;;10.10;99.90;;;;;;5053704;28;20024;-85
2023/03/20 09:54:45;;;;;;;;;;;10.10;99.90;;;;;;5037049;28;19975;-85
2023/03/20 09:57:37;;;;;;;;;;;10.20;99.90;;;;;;5069979;28;20416;-86
2023/03/20 10:00:11;;;;;;;;;;;10.20;99.90;;;;;;5050020;28;20007;-85
2023/03/20 10:02:43;;;;;;;;;;;10.20;99.90;;;;;;5036956;28;19925;-86
2023/03/20 10:05:18;;;;;;;;;;;10.20;99.90;;;;;;5053042;28;19925;-85
2023/03/20 10:07:44;;;;;;;;;;;10.30;99.90;;;;;;5036351;28;19982;-84
2023/03/20 10:10:14;;;;;;;;;;;10.40;99.90;;;;;;5019491;28;19928;-86
2023/03/20 10:12:49;;;;;;;;;;;10.60;99.90;;;;;;5087047;28;19931;-86
2023/03/20 10:15:21;;;;;;;;;;;10.70;99.90;;;;;;5036868;28;20357;-86
2023/03/20 10:18:01;;;;;;;;;;;10.70;99.90;;;;;;5036419;28;19924;-86
2023/03/20 10:20:38;;;;;;;;;;;10.70;99.90;;;;;;5053988;28;20222;-86
2023/03/20 10:23:24;;;;;;;;;;;10.70;99.90;;;;;;5036708;28;19964;-86
2023/03/20 10:25:52;;;;;;;;;;;10.50;99.90;;;;;;5069591;28;19925;-86
2023/03/20 10:28:25;;;;;;;;;;;10.40;99.90;;;;;;5036205;28;19947;-86
2023/03/20 10:30:57;;;;;;;;;;;10.50;99.90;;;;;;5053637;28;20020;-85
2023/03/20 10:33:38;;;;;;;;;;;10.40;99.90;;;;;;5053411;28;20357;-86
2023/03/20 10:36:09;;;;;;;;;;;10.40;99.90;;;;;;5036886;28;19959;-85
2023/03/20 10:38:47;;;;;;;;;;;10.40;99.90;;;;;;5053532;28;19931;-86
2023/03/20 10:41:18;;;;;;;;;;;10.30;99.90;;;;;;5086371;28;19932;-86
2023/03/20 10:43:46;;;;;;;;;;;10.30;99.90;;;;;;5070337;28;19990;-86
2023/03/20 10:46:17;;;;;;;;;;;9.20;99.90;;;;;;5069064;28;19929;-86
2023/03/20 10:48:46;;;;;;;;;;;10.30;99.90;;;;;;5036563;28;19932;-86
2023/03/20 10:51:16;;;;;;;;;;;10.30;99.90;;;;;;5036127;28;19933;-86
2023/03/20 10:53:42;;;;;;;;;;;10.20;99.90;;;;;;5052765;28;20325;-87
2023/03/20 10:56:10;;;;;;;;;;;10.30;99.90;;;;;;5036057;28;20023;-86
2023/03/20 10:58:38;;;;;;;;;;;10.40;99.90;;;;;;5036333;28;19933;-87
2023/03/20 11:01:04;;;;;;;;;;;10.40;99.90;;;;;;5052677;28;19925;-87
2023/03/20 11:03:33;;;;;;;;;;;10.40;99.90;;;;;;5069284;28;20268;-89
2023/03/20 11:06:03;;;;;;;;;;;10.40;99.90;;;;;;5020226;28;20407;-88
2023/03/20 11:08:32;;;;;;;;;;;10.40;99.90;;;;;;5035948;28;19925;-89
2023/03/20 11:11:00;;;;;;;;;;;10.40;99.90;;;;;;5052062;28;19925;-87
2023/03/20 11:13:26;;;;;;;;;;;10.30;99.90;;;;;;5036393;28;19971;-87
2023/03/20 11:15:53;;;;;;;;;;;10.50;99.90;;;;;;5052799;28;20055;-88
2023/03/20 11:18:19;;;;;;;;;;;10.30;99.90;;;;;;5035995;28;19947;-88
2023/03/20 11:20:44;;;;;;;;;;;10.30;99.90;;;;;;5056375;28;20360;-87
2023/03/20 11:23:15;;;;;;;;;;;10.30;99.90;;;;;;5040703;28;19964;-87
2023/03/20 11:25:46;;;;;;;;;;;10.20;99.90;;;;;;5039728;28;19968;-88
2023/03/20 11:28:31;;;;;;;;;;;10.40;99.90;;;;;;5039777;28;19932;-87
2023/03/20 11:31:01;;;;;;;;;;;10.40;99.90;;;;;;5072587;28;19982;-88
2023/03/20 11:33:27;;;;;;;;;;;10.40;99.90;;;;;;5056218;28;19986;-89
2023/03/20 11:35:54;;;;;;;;;;;10.30;99.90;;;;;;5023685;28;20007;-88
2023/03/20 11:38:20;;;;;;;;;;;10.30;99.90;;;;;;5040476;28;19981;-87
2023/03/20 11:40:47;;;;;;;;;;;10.20;99.90;;;;;;5039649;28;19932;-90
2023/03/20 11:43:14;;;;;;;;;;;10.20;99.90;;;;;;5039217;28;19925;-89
2023/03/20 11:45:44;;;;;;;;;;;10.20;99.90;;;;;;5039198;28;19925;-86
2023/03/20 11:48:20;;;;;;;;;;;10.20;99.90;;;;;;5055737;28;19924;-87
2023/03/20 11:51:04;;;;;;;;;;;10.20;99.90;;;;;;5039108;28;19925;-89
2023/03/20 11:53:36;;;;;;;;;;;10.20;99.90;;;;;;5073197;28;19925;-88
2023/03/20 11:56:09;;;;;;;;;;;10.20;99.90;;;;;;5039139;28;20380;-88
2023/03/20 11:58:37;;;;;;;;;;;10.20;99.90;;;;;;5055743;28;19924;-88
2023/03/20 12:01:06;;;;;;;;;;;10.10;99.90;;;;;;5039118;28;19994;-88
2023/03/20 12:03:40;;;;;;;;;;;10.10;99.90;;;;;;5072832;28;20427;-89
2023/03/20 12:06:07;;;;;;;;;;;10.10;99.90;;;;;;5038836;28;19924;-88
2023/03/20 12:08:34;;;;;;;;;;;9.90;99.90;;;;;;5055543;28;20380;-91
2023/03/20 12:11:02;;;;;;;;;;;10.10;99.90;;;;;;5038824;28;19974;-89
2023/03/20 12:13:33;;;;;;;;;;;9.90;99.90;;;;;;5038487;28;19929;-88
2023/03/20 12:16:01;;;;;;;;;;;9.80;99.90;;;;;;5056030;28;19925;-91
2023/03/20 12:18:31;;;;;;;;;;;10.00;99.90;;;;;;5056756;28;19928;-86
2023/03/20 12:21:07;;;;;;;;;;;9.80;99.90;;;;;;5072646;28;19924;-88
2023/03/20 12:23:47;;;;;;;;;;;9.70;99.90;;;;;;5038191;28;19929;-91
2023/03/20 12:26:17;;;;;;;;;;;9.80;99.90;;;;;;5055263;28;19940;-88
2023/03/20 12:28:48;;;;;;;;;;;9.80;99.90;;;;;;5054929;28;20390;-89
2023/03/20 12:31:22;;;;;;;;;;;10.10;99.90;;;;;;5037202;28;19932;-87
2023/03/20 12:33:51;;;;;;;;;;;10.00;99.90;;;;;;5055561;28;19924;-87
2023/03/20 12:36:18;;;;;;;;;;;9.90;99.90;;;;;;5038414;28;20015;-88
2023/03/20 12:38:44;;;;;;;;;;;10.00;99.90;;;;;;5056384;28;19932;-89
2023/03/20 12:41:11;;;;;;;;;;;10.00;99.90;;;;;;5040388;28;19968;-88
2023/03/20 12:43:48;;;;;;;;;;;9.90;99.90;;;;;;5038573;28;19924;-89
2023/03/20 12:46:25;;;;;;;;;;;9.90;99.90;;;;;;5039909;28;19928;-89
2023/03/20 12:49:00;;;;;;;;;;;9.90;99.90;;;;;;5038452;28;19925;-90
2023/03/20 12:51:31;;;;;;;;;;;9.90;99.90;;;;;;5037830;28;19988;-88
2023/03/20 12:53:57;;;;;;;;;;;9.90;99.90;;;;;;5037722;28;19979;-87
2023/03/20 12:56:26;;;;;;;;;;;9.90;99.90;;;;;;5037838;28;19975;-88
2023/03/20 12:59:00;;;;;;;;;;;9.90;99.90;;;;;;5054403;28;19972;-86
2023/03/20 13:01:30;;;;;;;;;;;10.00;99.90;;;;;;5055024;28;19932;-89
2023/03/20 13:03:59;;;;;;;;;;;10.00;99.90;;;;;;5054271;28;19974;-87
2023/03/20 13:06:39;;;;;;;;;;;9.80;99.90;;;;;;5053732;28;19924;-86
2023/03/20 13:09:17;;;;;;;;;;;9.70;99.90;;;;;;5053800;28;19931;-88
2023/03/20 13:11:56;;;;;;;;;;;9.60;99.90;;;;;;5053966;28;19931;-88
2023/03/20 13:14:27;;;;;;;;;;;9.70;99.90;;;;;;5071639;28;19929;-86
2023/03/20 13:17:10;;;;;;;;;;;9.50;99.90;;;;;;5037700;28;19925;-86
2023/03/20 13:20:05;;;;;;;;;;;9.40;99.90;;;;;;5054058;28;19947;-88
2023/03/20 13:22:37;;;;;;;;;;;9.40;99.90;;;;;;5036996;28;19975;-87
2023/03/20 13:25:07;;;;;;;;;;;9.40;99.90;;;;;;5037234;28;20012;-87
2023/03/20 13:27:40;;;;;;;;;;;9.20;99.90;;;;;;5054125;28;19968;-88
2023/03/20 13:30:13;;;;;;;;;;;9.40;99.90;;;;;;5037212;28;20019;-87
2023/03/20 13:32:58;;;;;;;;;;;9.20;99.90;;;;;;5037628;28;20292;-89
2023/03/20 13:35:44;;;;;;;;;;;9.10;99.90;;;;;;5071341;28;20305;-87
2023/03/20 13:38:19;;;;;;;;;;;9.20;99.90;;;;;;5054591;28;19925;-88
2023/03/20 13:40:45;;;;;;;;;;;9.20;99.90;;;;;;5036966;28;19931;-87
2023/03/20 13:43:30;;;;;;;;;;;9.20;99.90;;;;;;5070527;28;19971;-88
2023/03/20 13:46:08;;;;;;;;;;;9.20;99.90;;;;;;5070263;28;19947;-88
2023/03/20 13:48:39;;;;;;;;;;;9.20;99.90;;;;;;5036786;28;19932;-87
2023/03/20 13:51:14;;;;;;;;;;;9.20;99.90;;;;;;5053788;28;20345;-85
2023/03/20 13:53:45;;;;;;;;;;;9.10;99.90;;;;;;5053148;28;19932;-87
2023/03/20 13:56:20;;;;;;;;;;;9.10;99.90;;;;;;5036835;28;19929;-91
2023/03/20 13:58:55;;;;;;;;;;;9.10;99.90;;;;;;5037649;28;20261;-89
2023/03/20 14:01:27;;;;;;;;;;;9.20;99.90;;;;;;5037688;28;20288;-93
2023/03/20 14:03:53;;;;;;;;;;;9.50;99.90;;;;;;5036680;28;19924;-86
2023/03/20 14:06:22;;;;;;;;;;;9.10;99.90;;;;;;5069503;28;19932;-86
2023/03/20 14:08:54;;;;;;;;;;;9.20;99.90;;;;;;5036166;28;19978;-88
2023/03/20 14:11:19;;;;;;;;;;;10.40;99.90;;;;;;5037184;28;20023;-89
2023/03/20 14:13:48;;;;;;;;;;;9.10;99.90;;;;;;5036626;28;20372;-88
2023/03/20 14:16:15;;;;;;;;;;;9.10;99.90;;;;;;5036432;28;19931;-88
2023/03/20 14:18:42;;;;;;;;;;;9.00;99.90;;;;;;5053227;28;19935;-88
2023/03/20 14:21:13;;;;;;;;;;;9.00;99.90;;;;;;5053012;28;20027;-88
2023/03/20 14:23:41;;;;;;;;;;;8.90;99.90;;;;;;5053054;28;20342;-90
2023/03/20 14:26:33;;;;;;;;;;;9.00;99.90;;;;;;5036319;28;19924;-85
2023/03/20 14:29:08;;;;;;;;;;;8.90;99.90;;;;;;5033770;28;19971;-85
2023/03/20 14:31:37;;;;;;;;;;;8.90;99.90;;;;;;5036525;28;19925;-85
2023/03/20 14:34:11;;;;;;;;;;;8.90;99.90;;;;;;5053818;28;19972;-85
2023/03/20 14:36:49;;;;;;;;;;;8.90;99.90;;;;;;5053097;28;19925;-84
2023/03/20 14:39:27;;;;;;;;;;;8.90;99.90;;;;;;5052970;28;20020;-85
2023/03/20 14:41:58;;;;;;;;;;;8.90;99.90;;;;;;5035916;28;20004;-85
2023/03/20 14:44:24;;;;;;;;;;;8.90;99.90;;;;;;5052885;28;19932;-85
2023/03/20 14:46:50;;;;;;;;;;;9.00;99.90;;;;;;5036268;28;19925;-85
2023/03/20 14:49:21;;;;;;;;;;;8.90;99.90;;;;;;5036199;28;20284;-85
2023/03/20 14:51:49;;;;;;;;;;;8.90;99.90;;;;;;5052688;28;20283;-85
2023/03/20 14:54:26;;;;;;;;;;;8.90;99.90;;;;;;5038220;28;19925;-85
2023/03/20 14:56:52;;;;;;;;;;;8.90;99.90;;;;;;5057030;28;19974;-85
2023/03/20 14:59:22;;;;;;;;;;;8.90;99.90;;;;;;5023829;28;20015;-85